Time;durP1;ratioP1;P1;durP2;ratioP2;P2;SDS_P1;SDS_P2;PMS_P1;PMS_P2;Temp;Humidity;BMP_temperature;BMP_pressure;BME280_temperature;BME280_humidity;BME280_pressure;Samples;Min_cycle;Max_cycle;Signal;HPM_P1;HPM_P2
2021/10/11 00:04:41;;;;;;;3.90;2.75;;;;;;;;;;10219182;29;20039;-90
2021/10/11 00:09:42;;;;;;;6.33;3.03;;;;;;;;;;10219414;28;20106;-90
2021/10/11 00:14:42;;;;;;;3.78;2.80;;;;;;;;;;10218202;29;20613;-90
2021/10/11 00:19:43;;;;;;;4.80;2.90;;;;;;;;;;10219016;29;20034;-91
2021/10/11 00:24:44;;;;;;;10.00;3.28;;;;;;;;;;10218041;29;20190;-89
2021/10/11 00:29:44;;;;;;;5.00;2.83;;;;;;;;;;10218169;29;20058;-89
2021/10/11 00:34:44;;;;;;;5.07;2.87;;;;;;;;;;10218790;29;20035;-89
2021/10/11 00:39:45;;;;;;;4.43;2.80;;;;;;;;;;10216600;29;20036;-90
2021/10/11 00:44:45;;;;;;;3.30;2.57;;;;;;;;;;10217395;29;20545;-90
2021/10/11 00:49:45;;;;;;;4.67;2.60;;;;;;;;;;10217061;29;20470;-90
2021/10/11 00:54:46;;;;;;;5.10;2.80;;;;;;;;;;10217761;29;20110;-90
2021/10/11 00:59:46;;;;;;;4.60;2.30;;;;;;;;;;10215137;29;20470;-90
2021/10/11 01:04:47;;;;;;;3.37;2.40;;;;;;;;;;10216717;29;20090;-89
2021/10/11 01:09:47;;;;;;;4.00;2.53;;;;;;;;;;10216416;29;20063;-88
2021/10/11 01:14:48;;;;;;;4.17;2.80;;;;;;;;;;10216532;28;20043;-91
2021/10/11 01:19:49;;;;;;;6.22;2.97;;;;;;;;;;10202996;29;20373;-89
2021/10/11 01:24:49;;;;;;;4.35;2.42;;;;;;;;;;10215859;29;20386;-89
2021/10/11 01:29:50;;;;;;;4.23;2.53;;;;;;;;;;10215994;29;20115;-89
2021/10/11 01:34:51;;;;;;;3.80;2.50;;;;;;;;;;10215210;29;20039;-90
2021/10/11 01:39:51;;;;;;;3.83;2.75;;;;;;;;;;10215147;29;20028;-89
2021/10/11 01:44:51;;;;;;;4.03;2.33;;;;;;;;;;10214008;29;20047;-89
2021/10/11 01:49:52;;;;;;;3.60;2.13;;;;;;;;;;10214353;29;20031;-90
2021/10/11 01:54:52;;;;;;;2.87;2.30;;;;;;;;;;10215948;29;20032;-90
2021/10/11 01:59:53;;;;;;;5.13;2.33;;;;;;;;;;10215860;29;20776;-90
2021/10/11 02:04:53;;;;;;;5.10;2.43;;;;;;;;;;10217347;29;20046;-90
2021/10/11 02:09:54;;;;;;;4.03;2.58;;;;;;;;;;10216926;29;20023;-90
2021/10/11 02:14:54;;;;;;;3.70;2.60;;;;;;;;;;10215527;29;20401;-89
2021/10/11 02:19:55;;;;;;;3.35;2.20;;;;;;;;;;10214673;29;20322;-89
2021/10/11 02:24:55;;;;;;;5.33;2.57;;;;;;;;;;10213687;29;20031;-90
2021/10/11 02:29:55;;;;;;;4.23;2.20;;;;;;;;;;10229258;29;20616;-91
2021/10/11 02:34:56;;;;;;;3.40;2.50;;;;;;;;;;10212451;29;20277;-92
2021/10/11 02:39:56;;;;;;;3.13;2.50;;;;;;;;;;10213346;29;20273;-92
2021/10/11 02:44:57;;;;;;;3.25;2.63;;;;;;;;;;10215141;29;20127;-92
2021/10/11 02:49:57;;;;;;;3.72;2.38;;;;;;;;;;10222444;28;20084;-91
2021/10/11 02:54:57;;;;;;;7.20;2.60;;;;;;;;;;10221377;29;20107;-89
2021/10/11 02:59:58;;;;;;;3.43;2.20;;;;;;;;;;10221243;29;20110;-89
2021/10/11 03:04:58;;;;;;;5.10;2.47;;;;;;;;;;10221325;29;20366;-90
2021/10/11 03:09:59;;;;;;;3.47;2.33;;;;;;;;;;10220663;29;20285;-90
2021/10/11 03:15:00;;;;;;;4.57;2.22;;;;;;;;;;10233238;29;20071;-89
2021/10/11 03:20:00;;;;;;;3.03;2.30;;;;;;;;;;10220727;29;20059;-89
2021/10/11 03:25:00;;;;;;;2.35;1.98;;;;;;;;;;10220829;29;20386;-90
2021/10/11 03:30:01;;;;;;;5.00;2.00;;;;;;;;;;10220913;29;20038;-91
2021/10/11 03:35:01;;;;;;;2.63;2.30;;;;;;;;;;10219753;29;20066;-93
2021/10/11 03:40:02;;;;;;;2.97;1.90;;;;;;;;;;10220564;28;20027;-93
2021/10/11 03:45:03;;;;;;;2.35;2.15;;;;;;;;;;10220105;29;20294;-93
2021/10/11 03:50:05;;;;;;;5.35;2.33;;;;;;;;;;10220445;29;20036;-93
2021/10/11 03:55:06;;;;;;;2.63;1.98;;;;;;;;;;10218418;29;20039;-92
2021/10/11 04:00:07;;;;;;;6.00;2.08;;;;;;;;;;10217750;29;20027;-92
2021/10/11 04:05:08;;;;;;;4.10;2.00;;;;;;;;;;10233401;29;20027;-90
2021/10/11 04:10:10;;;;;;;3.03;1.95;;;;;;;;;;10219740;29;20039;-90
2021/10/11 04:15:10;;;;;;;3.80;1.80;;;;;;;;;;10217464;29;20038;-91
2021/10/11 04:20:10;;;;;;;4.77;2.10;;;;;;;;;;10207744;29;20095;-90
2021/10/11 04:25:11;;;;;;;4.88;1.70;;;;;;;;;;10220702;29;20031;-90
2021/10/11 04:30:11;;;;;;;2.40;2.07;;;;;;;;;;10221134;29;20474;-91
2021/10/11 04:35:12;;;;;;;3.10;2.47;;;;;;;;;;10220780;29;20375;-90
2021/10/11 04:40:12;;;;;;;3.10;2.90;;;;;;;;;;10220069;29;20040;-90
2021/10/11 04:45:12;;;;;;;5.40;5.00;;;;;;;;;;10218147;28;20616;-91
2021/10/11 04:50:13;;;;;;;6.67;6.27;;;;;;;;;;10218198;29;20293;-92
2021/10/11 04:55:13;;;;;;;5.73;3.87;;;;;;;;;;10218340;29;20270;-91
2021/10/11 05:00:14;;;;;;;4.85;2.50;;;;;;;;;;10217295;29;20053;-89
2021/10/11 05:05:14;;;;;;;2.50;2.05;;;;;;;;;;10217454;29;20027;-90
2021/10/11 05:10:17;;;;;;;2.67;2.37;;;;;;;;;;10216136;29;20090;-89
2021/10/11 05:15:18;;;;;;;4.35;2.30;;;;;;;;;;10216696;29;20123;-92
2021/10/11 05:20:18;;;;;;;2.72;2.25;;;;;;;;;;10226429;29;20094;-95
2021/10/11 05:25:19;;;;;;;2.72;2.33;;;;;;;;;;10217547;29;20118;-91
2021/10/11 05:30:19;;;;;;;2.37;2.17;;;;;;;;;;10217069;29;20494;-91
2021/10/11 05:35:20;;;;;;;10.02;2.63;;;;;;;;;;10216704;28;20184;-95
2021/10/11 05:40:20;;;;;;;3.42;2.38;;;;;;;;;;10215631;29;20042;-95
2021/10/11 05:45:21;;;;;;;6.33;2.57;;;;;;;;;;10216081;29;20142;-95
2021/10/11 05:50:21;;;;;;;7.13;2.60;;;;;;;;;;10216423;29;20669;-94
2021/10/11 05:55:22;;;;;;;2.70;2.50;;;;;;;;;;10220908;29;20055;-91
2021/10/11 06:00:37;;;;;;;6.38;2.90;;;;;;;;;;10210298;29;20040;-94
2021/10/11 06:05:37;;;;;;;9.07;2.90;;;;;;;;;;10200352;29;20035;-87
2021/10/11 06:10:38;;;;;;;13.20;3.03;;;;;;;;;;10213561;29;20047;-87
2021/10/11 06:15:39;;;;;;;13.07;3.70;;;;;;;;;;10213840;29;20537;-87
2021/10/11 06:20:40;;;;;;;7.63;3.17;;;;;;;;;;10210709;29;20042;-86
2021/10/11 06:25:43;;;;;;;4.88;2.85;;;;;;;;;;10210446;29;20455;-86
2021/10/11 06:30:45;;;;;;;7.50;3.28;;;;;;;;;;10222023;29;20031;-87
2021/10/11 06:35:46;;;;;;;8.10;2.97;;;;;;;;;;10205211;28;20039;-87
2021/10/11 06:40:48;;;;;;;10.03;3.20;;;;;;;;;;10208462;28;20028;-87
2021/10/11 06:45:48;;;;;;;6.40;3.00;;;;;;;;;;10207850;28;20598;-87
2021/10/11 06:50:49;;;;;;;8.27;3.00;;;;;;;;;;10213505;29;20039;-88
2021/10/11 06:55:49;;;;;;;7.75;3.60;;;;;;;;;;10209994;29;20050;-87
2021/10/11 07:00:51;;;;;;;4.97;3.40;;;;;;;;;;10204553;29;20044;-87
2021/10/11 07:05:52;;;;;;;8.43;3.53;;;;;;;;;;10204454;29;20024;-87
2021/10/11 07:10:54;;;;;;;8.35;3.38;;;;;;;;;;10209773;29;20035;-87
2021/10/11 07:15:55;;;;;;;4.55;3.05;;;;;;;;;;10207352;28;20034;-89
2021/10/11 07:20:55;;;;;;;8.17;3.40;;;;;;;;;;10209267;29;20347;-90
2021/10/11 07:25:56;;;;;;;8.20;3.27;;;;;;;;;;10227474;29;20020;-90
2021/10/11 07:30:57;;;;;;;5.47;2.95;;;;;;;;;;10206883;29;20366;-90
2021/10/11 07:35:57;;;;;;;10.13;3.70;;;;;;;;;;10206480;28;20040;-89
2021/10/11 07:40:58;;;;;;;5.10;3.53;;;;;;;;;;10210176;29;20071;-89
2021/10/11 07:46:03;;;;;;;5.63;3.75;;;;;;;;;;10289024;23;20110;-90
2021/10/11 07:51:03;;;;;;;5.57;3.97;;;;;;;;;;10270846;28;20038;-91
2021/10/11 07:56:04;;;;;;;6.20;4.03;;;;;;;;;;10302218;28;20402;-90
2021/10/11 08:01:04;;;;;;;8.52;3.70;;;;;;;;;;10297469;28;20027;-90
2021/10/11 08:06:06;;;;;;;6.80;4.00;;;;;;;;;;10297276;28;20027;-89
2021/10/11 08:11:06;;;;;;;7.47;3.58;;;;;;;;;;10303319;28;20269;-89
2021/10/11 08:16:09;;;;;;;5.20;3.60;;;;;;;;;;10302469;28;20113;-90
2021/10/11 08:21:10;;;;;;;5.15;3.40;;;;;;;;;;10289825;28;20031;-89
2021/10/11 08:26:16;;;;;;;5.40;3.80;;;;;;;;;;10279484;28;20034;-91
2021/10/11 08:31:16;;;;;;;6.93;3.63;;;;;;;;;;10275861;28;20086;-89
2021/10/11 08:36:17;;;;;;;6.53;3.78;;;;;;;;;;10273967;28;20027;-96
2021/10/11 08:41:17;;;;;;;6.70;3.85;;;;;;;;;;10276311;28;20386;-95
2021/10/11 08:46:18;;;;;;;5.22;3.38;;;;;;;;;;10257887;28;20066;-93
2021/10/11 08:51:18;;;;;;;4.60;3.77;;;;;;;;;;10260893;28;20393;-95
2021/10/11 08:56:19;;;;;;;5.13;3.60;;;;;;;;;;10283659;28;20281;-95
2021/10/11 09:01:21;;;;;;;10.35;3.30;;;;;;;;;;10311794;28;20022;-94
2021/10/11 09:06:22;;;;;;;7.63;3.70;;;;;;;;;;10289381;28;20043;-96
2021/10/11 09:11:22;;;;;;;4.23;3.00;;;;;;;;;;10286049;28;20118;-94
2021/10/11 09:16:40;;;;;;;4.97;3.17;;;;;;;;;;10297278;28;20030;-96
2021/10/11 09:21:41;;;;;;;6.73;3.53;;;;;;;;;;10295291;28;20281;-95
2021/10/11 09:26:46;;;;;;;6.25;3.10;;;;;;;;;;10294532;28;20019;-96
2021/10/11 09:31:48;;;;;;;6.07;3.33;;;;;;;;;;10273916;28;20027;-96
2021/10/11 09:37:06;;;;;;;5.13;3.72;;;;;;;;;;10268883;28;20043;-95
2021/10/11 09:42:11;;;;;;;9.57;3.58;;;;;;;;;;10251249;28;20035;-96
2021/10/11 09:47:26;;;;;;;5.43;3.72;;;;;;;;;;10279052;28;20051;-96
2021/10/11 09:52:27;;;;;;;7.03;3.45;;;;;;;;;;10270264;28;20420;-95
2021/10/11 09:57:27;;;;;;;5.78;3.50;;;;;;;;;;10294153;28;20093;-95
2021/10/11 10:02:31;;;;;;;4.82;3.42;;;;;;;;;;10295240;28;20053;-94
2021/10/11 10:07:36;;;;;;;4.55;3.13;;;;;;;;;;10309809;28;20362;-88
2021/10/11 10:12:44;;;;;;;6.25;3.17;;;;;;;;;;10294453;28;20058;-87
2021/10/11 10:17:45;;;;;;;3.60;3.05;;;;;;;;;;10294612;28;20058;-88
2021/10/11 10:22:45;;;;;;;5.38;3.08;;;;;;;;;;10280281;28;20055;-88
2021/10/11 10:27:48;;;;;;;6.05;3.42;;;;;;;;;;10294551;28;20038;-88
2021/10/11 10:32:52;;;;;;;5.78;3.17;;;;;;;;;;10293790;28;20049;-88
2021/10/11 10:37:53;;;;;;;3.95;2.85;;;;;;;;;;10293860;28;20027;-87
2021/10/11 10:43:22;;;;;;;6.00;2.90;;;;;;;;;;10293297;28;20043;-88
2021/10/11 10:48:26;;;;;;;6.03;3.00;;;;;;;;;;10292732;28;20047;-88
2021/10/11 10:53:29;;;;;;;3.28;2.85;;;;;;;;;;10274932;28;20818;-88
2021/10/11 10:58:29;;;;;;;4.78;2.40;;;;;;;;;;10297052;28;20037;-88
2021/10/11 11:03:29;;;;;;;5.27;3.07;;;;;;;;;;10272768;28;20122;-87
2021/10/11 11:08:30;;;;;;;4.60;2.97;;;;;;;;;;10282396;28;20027;-87
2021/10/11 11:13:30;;;;;;;6.05;2.90;;;;;;;;;;10278585;28;20035;-87
2021/10/11 11:18:31;;;;;;;3.45;2.90;;;;;;;;;;10268343;28;20045;-88
2021/10/11 11:23:34;;;;;;;4.50;2.50;;;;;;;;;;10284225;28;20050;-86
2021/10/11 11:28:36;;;;;;;3.72;2.80;;;;;;;;;;10287128;28;20336;-87
2021/10/11 11:33:46;;;;;;;6.30;3.40;;;;;;;;;;10280133;28;20034;-87
2021/10/11 11:38:46;;;;;;;6.80;2.75;;;;;;;;;;10289701;28;20026;-87
2021/10/11 11:43:46;;;;;;;5.10;2.60;;;;;;;;;;10268437;28;20062;-87
2021/10/11 11:48:47;;;;;;;4.73;2.50;;;;;;;;;;10267636;28;20165;-88
2021/10/11 11:53:47;;;;;;;4.57;2.63;;;;;;;;;;10269518;28;20453;-85
2021/10/11 11:58:50;;;;;;;6.85;3.08;;;;;;;;;;10273154;28;20288;-86
2021/10/11 12:03:52;;;;;;;3.13;2.58;;;;;;;;;;10276943;28;20030;-85
2021/10/11 12:08:53;;;;;;;4.45;2.60;;;;;;;;;;10283006;28;20035;-85
2021/10/11 12:14:01;;;;;;;4.07;2.92;;;;;;;;;;10267333;28;20446;-87
2021/10/11 12:19:04;;;;;;;5.30;2.50;;;;;;;;;;10277558;28;20362;-87
2021/10/11 12:24:17;;;;;;;5.35;2.70;;;;;;;;;;10273993;28;20082;-87
2021/10/11 12:29:19;;;;;;;6.95;2.30;;;;;;;;;;10273457;28;20045;-87
2021/10/11 12:34:26;;;;;;;5.90;2.70;;;;;;;;;;10280186;28;20027;-89
2021/10/11 12:39:32;;;;;;;3.88;2.70;;;;;;;;;;10272759;28;20027;-88
2021/10/11 12:44:35;;;;;;;4.65;2.80;;;;;;;;;;10268903;28;20047;-87
2021/10/11 12:49:37;;;;;;;7.35;3.28;;;;;;;;;;10267908;28;20043;-88
2021/10/11 12:54:39;;;;;;;5.15;2.80;;;;;;;;;;10289215;28;20066;-87
2021/10/11 12:59:40;;;;;;;8.65;2.65;;;;;;;;;;10278011;28;20063;-86
2021/10/11 13:04:41;;;;;;;2.85;2.50;;;;;;;;;;10276548;28;20118;-86
2021/10/11 13:09:41;;;;;;;6.53;2.93;;;;;;;;;;10268087;28;20126;-85
2021/10/11 13:14:41;;;;;;;5.30;3.30;;;;;;;;;;10265151;28;20023;-84
2021/10/11 13:19:43;;;;;;;8.40;2.60;;;;;;;;;;10263882;28;20289;-82
2021/10/11 13:24:43;;;;;;;8.57;3.03;;;;;;;;;;10264267;28;20285;-83
2021/10/11 14:27:48;;;;;;;4.22;2.50;;;;;;;;;;10293764;28;20030;-85
2021/10/11 15:59:03;;;;;;;3.15;2.10;;;;;;;;;;10298888;28;19922;-84
2021/10/11 16:03:50;;;;;;;6.03;2.45;;;;;;;;;;10284834;28;20049;-84
2021/10/11 16:08:51;;;;;;;3.75;2.10;;;;;;;;;;10298432;28;20034;-85
2021/10/11 16:13:52;;;;;;;3.28;2.45;;;;;;;;;;10298888;28;20393;-84
2021/10/11 16:18:52;;;;;;;5.87;2.50;;;;;;;;;;10298659;28;20037;-84
2021/10/11 16:23:52;;;;;;;4.10;2.30;;;;;;;;;;10295385;28;20058;-84
2021/10/11 16:28:53;;;;;;;3.85;2.60;;;;;;;;;;10270862;28;20023;-84
2021/10/11 16:33:53;;;;;;;4.93;2.60;;;;;;;;;;10293301;28;20118;-87
2021/10/11 16:38:54;;;;;;;8.00;2.30;;;;;;;;;;10296012;28;20030;-88
2021/10/11 16:43:54;;;;;;;5.93;2.67;;;;;;;;;;10285217;28;20124;-87
2021/10/11 16:48:55;;;;;;;4.55;2.33;;;;;;;;;;10297836;28;20377;-89
2021/10/11 16:59:03;;;;;;;7.65;3.00;;;;;;;;;;10294791;28;20292;-88
2021/10/11 17:04:05;;;;;;;3.95;2.15;;;;;;;;;;10262657;28;20031;-88
2021/10/11 17:09:06;;;;;;;5.70;2.53;;;;;;;;;;10266643;28;20046;-89
2021/10/11 17:14:06;;;;;;;9.13;2.55;;;;;;;;;;10277240;28;20031;-89
2021/10/11 17:19:07;;;;;;;3.17;2.03;;;;;;;;;;10256539;28;20032;-88
2021/10/11 17:24:09;;;;;;;4.90;2.45;;;;;;;;;;10249434;28;20046;-88
2021/10/11 17:29:10;;;;;;;4.80;2.42;;;;;;;;;;10254572;28;20047;-91
2021/10/11 17:34:10;;;;;;;3.57;2.00;;;;;;;;;;10267533;28;20042;-88
2021/10/11 17:39:11;;;;;;;7.03;2.53;;;;;;;;;;10272416;28;20292;-90
2021/10/11 17:44:11;;;;;;;4.22;2.45;;;;;;;;;;10264689;28;20181;-90
2021/10/11 17:49:12;;;;;;;4.28;2.13;;;;;;;;;;10273861;28;20528;-91
2021/10/11 17:54:12;;;;;;;11.63;2.80;;;;;;;;;;10264709;28;20036;-91
2021/10/11 17:59:13;;;;;;;3.53;2.53;;;;;;;;;;10261383;28;20086;-91
2021/10/11 18:04:19;;;;;;;6.35;3.10;;;;;;;;;;10272165;28;20032;-91
2021/10/11 18:09:19;;;;;;;5.05;2.72;;;;;;;;;;10260189;28;20059;-91
2021/10/11 18:14:20;;;;;;;5.40;2.75;;;;;;;;;;10256949;28;20055;-91
2021/10/11 18:19:21;;;;;;;3.88;2.30;;;;;;;;;;10257586;28;20042;-90
2021/10/11 18:24:21;;;;;;;4.82;2.67;;;;;;;;;;10267861;28;20035;-91
2021/10/11 18:29:23;;;;;;;3.83;2.60;;;;;;;;;;10275962;28;20043;-89
2021/10/11 18:34:23;;;;;;;3.67;2.25;;;;;;;;;;10264046;28;20038;-91
2021/10/11 18:39:24;;;;;;;5.13;2.43;;;;;;;;;;10267788;28;20035;-89
2021/10/11 18:44:24;;;;;;;4.80;2.63;;;;;;;;;;10272279;28;20047;-89
2021/10/11 18:49:25;;;;;;;6.60;2.55;;;;;;;;;;10271622;28;20023;-88
2021/10/11 18:54:26;;;;;;;3.45;2.50;;;;;;;;;;10288180;28;20030;-90
2021/10/11 18:59:26;;;;;;;21.02;3.30;;;;;;;;;;10262429;28;20039;-88
2021/10/11 19:04:27;;;;;;;20.77;4.50;;;;;;;;;;10268230;28;20034;-88
2021/10/11 19:09:27;;;;;;;13.25;2.67;;;;;;;;;;10253405;28;20288;-88
2021/10/11 19:14:28;;;;;;;14.33;3.13;;;;;;;;;;10251025;28;20106;-85
2021/10/11 19:19:29;;;;;;;13.93;3.00;;;;;;;;;;10256938;28;20027;-86
2021/10/11 19:24:30;;;;;;;24.10;3.60;;;;;;;;;;10255923;28;20090;-88
2021/10/11 19:29:30;;;;;;;9.65;3.83;;;;;;;;;;10276355;28;20304;-89
2021/10/11 19:34:31;;;;;;;14.90;3.63;;;;;;;;;;10284691;28;20054;-89
2021/10/11 19:39:31;;;;;;;11.35;3.05;;;;;;;;;;10279170;28;20034;-88
2021/10/11 19:44:32;;;;;;;14.53;3.10;;;;;;;;;;10272647;23;20043;-89
2021/10/11 19:49:32;;;;;;;12.70;3.97;;;;;;;;;;10254042;28;20279;-89
2021/10/11 19:54:32;;;;;;;12.57;3.40;;;;;;;;;;10273807;28;20466;-90
2021/10/11 19:59:33;;;;;;;18.65;3.53;;;;;;;;;;10261265;28;20099;-90
2021/10/11 20:04:33;;;;;;;12.90;4.20;;;;;;;;;;10263598;28;20371;-90
2021/10/11 20:09:33;;;;;;;14.17;3.73;;;;;;;;;;10262651;28;20031;-90
2021/10/11 20:14:34;;;;;;;9.07;3.57;;;;;;;;;;10262947;28;20024;-89
2021/10/11 20:19:34;;;;;;;10.50;3.20;;;;;;;;;;10278407;28;20292;-90
2021/10/11 20:24:35;;;;;;;10.27;2.97;;;;;;;;;;10277182;28;20039;-90
2021/10/11 20:29:35;;;;;;;9.20;2.85;;;;;;;;;;10273586;28;20078;-89
2021/10/11 20:34:36;;;;;;;7.20;3.13;;;;;;;;;;10275645;28;20039;-89
2021/10/11 20:39:36;;;;;;;6.93;2.63;;;;;;;;;;10281260;28;20035;-89
2021/10/11 20:44:37;;;;;;;6.30;2.83;;;;;;;;;;10266906;28;20054;-90
2021/10/11 20:49:37;;;;;;;9.60;2.80;;;;;;;;;;10264763;28;20478;-90
2021/10/11 20:54:38;;;;;;;13.50;3.72;;;;;;;;;;10254204;28;20043;-89
2021/10/11 20:59:40;;;;;;;12.70;3.07;;;;;;;;;;10272189;28;20046;-90
2021/10/11 21:04:40;;;;;;;8.20;2.95;;;;;;;;;;10277175;28;20352;-89
2021/10/11 21:09:41;;;;;;;6.47;3.47;;;;;;;;;;10262891;28;20122;-93
2021/10/11 21:14:41;;;;;;;4.20;2.80;;;;;;;;;;10255572;28;20071;-91
2021/10/11 21:19:42;;;;;;;5.80;3.10;;;;;;;;;;10242708;28;20281;-91
2021/10/11 21:24:42;;;;;;;7.50;3.38;;;;;;;;;;10260195;28;20035;-87
2021/10/11 21:29:42;;;;;;;9.70;3.25;;;;;;;;;;10252801;28;20032;-90
2021/10/11 21:34:43;;;;;;;15.43;2.77;;;;;;;;;;10250891;29;20024;-92
2021/10/11 21:39:43;;;;;;;8.30;3.25;;;;;;;;;;10256388;28;20031;-91
2021/10/11 21:44:44;;;;;;;26.53;4.30;;;;;;;;;;10257160;28;20047;-95
2021/10/11 21:49:45;;;;;;;13.85;3.63;;;;;;;;;;10273196;28;20289;-96
2021/10/11 21:54:45;;;;;;;6.00;2.83;;;;;;;;;;10251783;29;20035;-89
2021/10/11 21:59:45;;;;;;;7.97;2.80;;;;;;;;;;10254582;28;20285;-91
2021/10/11 22:04:46;;;;;;;5.43;2.33;;;;;;;;;;10255412;28;20027;-94
2021/10/11 22:09:46;;;;;;;5.77;2.87;;;;;;;;;;10270593;28;20060;-96
2021/10/11 22:14:48;;;;;;;7.47;2.90;;;;;;;;;;10268938;28;20138;-96
2021/10/11 22:19:48;;;;;;;11.98;2.90;;;;;;;;;;10275515;28;20059;-96
2021/10/11 22:24:50;;;;;;;7.88;2.78;;;;;;;;;;10266277;29;20075;-95
2021/10/11 22:29:50;;;;;;;4.73;2.67;;;;;;;;;;10256008;28;20062;-95
2021/10/11 22:34:50;;;;;;;7.43;3.00;;;;;;;;;;10267864;28;20059;-96
2021/10/11 22:39:51;;;;;;;7.80;2.53;;;;;;;;;;10262553;28;20640;-96
2021/10/11 22:44:52;;;;;;;6.72;2.40;;;;;;;;;;10263615;28;20522;-95
2021/10/11 22:49:52;;;;;;;5.57;2.73;;;;;;;;;;10259752;28;20035;-94
2021/10/11 22:54:54;;;;;;;10.13;2.80;;;;;;;;;;10254463;28;20262;-92
2021/10/11 22:59:54;;;;;;;9.18;3.08;;;;;;;;;;10270820;28;20027;-92
2021/10/11 23:04:55;;;;;;;6.13;2.70;;;;;;;;;;10260795;28;20036;-92
2021/10/11 23:09:55;;;;;;;8.93;2.87;;;;;;;;;;10261095;29;20039;-93
2021/10/11 23:14:55;;;;;;;5.67;2.40;;;;;;;;;;10261474;29;20066;-93
2021/10/11 23:19:56;;;;;;;5.80;2.28;;;;;;;;;;10262573;28;20365;-93
2021/10/11 23:24:56;;;;;;;7.95;2.92;;;;;;;;;;10262039;29;20043;-93
2021/10/11 23:29:57;;;;;;;5.67;2.93;;;;;;;;;;10277204;28;20138;-94
2021/10/11 23:34:57;;;;;;;4.17;2.47;;;;;;;;;;10261813;29;20031;-93
2021/10/11 23:39:58;;;;;;;6.85;2.83;;;;;;;;;;10263437;29;20281;-93
2021/10/11 23:44:58;;;;;;;3.27;2.30;;;;;;;;;;10262588;29;20086;-92
2021/10/11 23:49:59;;;;;;;4.45;2.30;;;;;;;;;;10259381;29;20344;-94
2021/10/11 23:54:59;;;;;;;9.80;2.47;;;;;;;;;;10260266;28;20031;-90
